createdAt,value
2022-10-17T00:02:17.796Z,12.97
2022-10-17T00:04:47.998Z,12.96
2022-10-17T00:07:18.181Z,12.96
2022-10-17T00:09:48.370Z,12.94
2022-10-17T00:12:18.599Z,12.90
2022-10-17T00:14:48.850Z,12.87
2022-10-17T00:17:19.081Z,12.83
2022-10-17T00:19:49.452Z,12.81
2022-10-17T00:22:19.715Z,12.80
2022-10-17T00:24:49.964Z,12.72
2022-10-17T00:27:20.514Z,12.64
2022-10-17T00:29:52.871Z,12.65
2022-10-17T00:32:23.482Z,12.64
2022-10-17T00:34:53.696Z,12.66
2022-10-17T00:37:23.904Z,12.68
2022-10-17T00:39:54.378Z,12.68
2022-10-17T00:42:25.198Z,12.67
2022-10-17T00:45:07.521Z,12.68
2022-10-17T00:47:38.337Z,12.69
2022-10-17T00:50:10.421Z,12.69
2022-10-17T00:52:41.360Z,12.69
2022-10-17T00:55:16.014Z,12.69
2022-10-17T00:57:47.632Z,12.67
2022-10-17T01:00:19.481Z,12.59
2022-10-17T01:02:49.803Z,12.50
2022-10-17T01:05:21.589Z,12.41
2022-10-17T01:07:54.357Z,12.37
2022-10-17T01:10:27.333Z,12.38
2022-10-17T01:13:10.784Z,12.40
2022-10-17T01:15:51.514Z,12.41
2022-10-17T01:18:32.427Z,12.41
2022-10-17T01:21:35.300Z,12.42
2022-10-17T01:24:44.048Z,12.41
2022-10-17T01:27:37.192Z,12.43
2022-10-17T01:30:30.551Z,12.45
2022-10-17T01:33:06.436Z,12.46
2022-10-17T01:35:43.265Z,12.36
2022-10-17T01:38:19.488Z,12.23
2022-10-17T01:40:54.752Z,12.20
2022-10-17T01:43:28.662Z,12.22
2022-10-17T01:46:04.071Z,12.23
2022-10-17T01:48:37.205Z,12.19
2022-10-17T01:51:12.295Z,12.16
2022-10-17T01:53:48.204Z,12.15
2022-10-17T01:56:21.536Z,12.14
2022-10-17T01:58:56.445Z,12.14
2022-10-17T02:01:27.954Z,12.15
2022-10-17T02:03:59.200Z,12.14
2022-10-17T02:06:29.461Z,12.12
2022-10-17T02:08:59.682Z,12.12
2022-10-17T02:11:30.477Z,12.13
2022-10-17T02:14:23.592Z,12.14
2022-10-17T02:17:02.077Z,12.16
2022-10-17T02:19:41.989Z,12.16
2022-10-17T02:22:24.779Z,12.16
2022-10-17T02:25:03.883Z,12.17
2022-10-17T02:27:44.855Z,12.17
2022-10-17T02:30:22.738Z,12.19
2022-10-17T02:32:57.915Z,12.19
2022-10-17T02:35:31.549Z,12.21
2022-10-17T02:38:04.546Z,12.23
2022-10-17T02:40:36.764Z,12.25
2022-10-17T02:43:07.144Z,12.27
2022-10-17T02:45:39.853Z,12.26
2022-10-17T02:48:17.347Z,12.24
2022-10-17T02:50:58.167Z,12.20
2022-10-17T02:53:38.702Z,12.16
2022-10-17T02:56:15.672Z,12.14
2022-10-17T02:58:51.322Z,12.13
2022-10-17T03:01:22.085Z,12.11
2022-10-17T03:03:53.112Z,12.06
2022-10-17T03:06:23.412Z,11.95
2022-10-17T03:08:53.667Z,11.86
2022-10-17T03:11:23.859Z,11.83
2022-10-17T03:13:54.101Z,11.84
2022-10-17T03:16:24.326Z,11.83
2022-10-17T03:18:54.558Z,11.80
2022-10-17T03:21:24.841Z,11.78
2022-10-17T03:23:55.101Z,11.77
2022-10-17T03:26:25.379Z,11.74
2022-10-17T03:28:55.644Z,11.73
2022-10-17T03:31:26.161Z,11.74
2022-10-17T03:33:56.710Z,11.71
2022-10-17T03:36:26.980Z,11.61
2022-10-17T03:38:57.737Z,11.54
2022-10-17T03:41:28.064Z,11.51
2022-10-17T03:43:58.276Z,11.48
2022-10-17T03:46:28.641Z,11.46
2022-10-17T03:48:58.895Z,11.44
2022-10-17T03:51:29.325Z,11.45
2022-10-17T03:53:59.547Z,11.50
2022-10-17T03:56:29.838Z,11.53
2022-10-17T03:59:00.090Z,11.54
2022-10-17T04:01:30.511Z,11.54
2022-10-17T04:04:00.761Z,11.56
2022-10-17T04:06:31.085Z,11.59
2022-10-17T04:09:01.604Z,11.60
2022-10-17T04:11:31.995Z,11.60
2022-10-17T04:14:02.295Z,11.61
2022-10-17T04:16:32.763Z,11.61
2022-10-17T04:19:03.942Z,11.62
2022-10-17T04:21:34.182Z,11.62
2022-10-17T04:24:04.546Z,11.62
2022-10-17T04:26:34.774Z,11.64
2022-10-17T04:29:05.088Z,11.64
2022-10-17T04:31:35.882Z,11.64
2022-10-17T04:34:06.121Z,11.62
2022-10-17T04:36:36.521Z,11.61
2022-10-17T04:39:06.849Z,11.61
2022-10-17T04:41:37.268Z,11.62
2022-10-17T04:44:07.727Z,11.63
2022-10-17T04:46:38.013Z,11.62
2022-10-17T04:49:09.396Z,11.62
2022-10-17T04:51:40.496Z,11.62
2022-10-17T04:54:10.907Z,11.62
2022-10-17T04:56:41.183Z,11.61
2022-10-17T04:59:11.393Z,11.61
2022-10-17T05:01:41.644Z,11.60
2022-10-17T05:04:11.866Z,11.59
2022-10-17T05:06:42.146Z,11.58
2022-10-17T05:09:12.456Z,11.58
2022-10-17T05:11:45.344Z,11.59
2022-10-17T05:14:16.325Z,11.61
2022-10-17T05:16:46.519Z,11.61
2022-10-17T05:19:17.233Z,11.60
2022-10-17T05:21:47.457Z,11.61
2022-10-17T05:24:19.146Z,11.61
2022-10-17T05:26:50.985Z,11.62
2022-10-17T05:29:21.305Z,11.63
2022-10-17T05:31:51.574Z,11.65
2022-10-17T05:34:21.937Z,11.65
2022-10-17T05:36:52.171Z,11.66
2022-10-17T05:39:23.385Z,11.67
2022-10-17T05:41:53.716Z,11.68
2022-10-17T05:44:23.960Z,11.69
2022-10-17T05:46:54.402Z,11.70
2022-10-17T05:49:33.341Z,11.72
2022-10-17T05:52:14.112Z,11.73
2022-10-17T05:54:44.318Z,11.75
2022-10-17T05:57:14.652Z,11.77
2022-10-17T05:59:44.846Z,11.79
2022-10-17T06:02:15.599Z,11.82
2022-10-17T06:04:48.488Z,11.85
2022-10-17T06:07:19.198Z,11.90
2022-10-17T06:09:49.455Z,11.95
2022-10-17T06:12:19.705Z,12.00
2022-10-17T06:14:49.920Z,12.03
2022-10-17T06:17:20.202Z,12.06
2022-10-17T06:19:50.390Z,12.10
2022-10-17T06:22:20.656Z,12.13
2022-10-17T06:24:52.507Z,12.18
2022-10-17T06:27:23.375Z,12.23
2022-10-17T06:29:53.585Z,12.27
2022-10-17T06:32:23.825Z,12.32
2022-10-17T06:34:54.049Z,12.37
2022-10-17T06:37:24.250Z,12.42
2022-10-17T06:39:54.460Z,12.48
2022-10-17T06:42:24.728Z,12.53
2022-10-17T06:44:54.901Z,12.59
2022-10-17T06:47:25.097Z,12.65
2022-10-17T06:49:55.303Z,12.72
2022-10-17T06:52:25.643Z,12.80
2022-10-17T06:54:55.923Z,12.88
2022-10-17T06:57:26.502Z,12.96
2022-10-17T06:59:57.625Z,13.04
2022-10-17T07:02:28.187Z,13.13
2022-10-17T07:04:58.659Z,13.23
2022-10-17T07:07:31.452Z,13.33
2022-10-17T07:10:03.846Z,13.43
2022-10-17T07:12:34.146Z,13.56
2022-10-17T07:15:05.356Z,13.88
2022-10-17T07:17:35.714Z,14.39
2022-10-17T07:20:06.546Z,14.74
2022-10-17T07:22:36.865Z,15.09
2022-10-17T07:25:08.730Z,15.34
2022-10-17T07:27:39.108Z,15.25
2022-10-17T07:30:11.894Z,15.18
2022-10-17T07:32:42.951Z,15.16
2022-10-17T07:35:14.412Z,15.15
2022-10-17T07:37:44.667Z,15.17
2022-10-17T07:40:15.052Z,15.19
2022-10-17T07:42:45.280Z,15.23
2022-10-17T07:45:15.763Z,15.28
2022-10-17T07:47:46.003Z,15.33
2022-10-17T07:50:16.305Z,15.39
2022-10-17T07:52:46.738Z,15.45
2022-10-17T07:55:17.328Z,15.52
2022-10-17T07:57:47.581Z,15.59
2022-10-17T08:00:25.532Z,15.66
2022-10-17T08:02:55.763Z,15.74
2022-10-17T08:05:26.096Z,15.82
2022-10-17T08:07:57.072Z,15.91
2022-10-17T08:10:29.617Z,15.98
2022-10-17T08:13:00.338Z,16.07
2022-10-17T08:15:32.149Z,16.15
2022-10-17T08:18:02.514Z,16.25
2022-10-17T08:20:32.763Z,16.34
2022-10-17T08:23:03.037Z,16.42
2022-10-17T08:25:33.980Z,16.51
2022-10-17T08:28:04.313Z,16.59
2022-10-17T08:30:34.735Z,16.68
2022-10-17T08:33:05.032Z,16.76
2022-10-17T08:35:35.332Z,16.84
2022-10-17T08:38:05.667Z,16.93
2022-10-17T08:40:36.448Z,17.01
2022-10-17T08:43:26.351Z,17.10
2022-10-17T08:46:00.444Z,17.19
2022-10-17T08:48:33.827Z,17.29
2022-10-17T08:51:08.189Z,17.39
2022-10-17T08:53:43.633Z,17.49
2022-10-17T08:56:24.922Z,17.59
2022-10-17T08:59:14.348Z,17.69
2022-10-17T09:01:51.017Z,17.79
2022-10-17T09:04:43.115Z,17.90
2022-10-17T09:07:19.742Z,18.01
2022-10-17T09:10:00.905Z,18.13
2022-10-17T09:12:39.846Z,18.25
2022-10-17T09:15:30.934Z,18.34
2022-10-17T09:18:04.611Z,18.44
2022-10-17T09:20:39.208Z,18.54
2022-10-17T09:23:16.793Z,18.63
2022-10-17T09:25:49.122Z,18.70
2022-10-17T09:28:23.029Z,18.77
2022-10-17T09:30:58.088Z,18.86
2022-10-17T09:33:53.373Z,18.98
2022-10-17T09:36:23.874Z,19.10
2022-10-17T09:38:57.112Z,19.20
2022-10-17T09:41:44.929Z,19.29
2022-10-17T09:44:24.166Z,19.39
2022-10-17T09:47:03.841Z,19.49
2022-10-17T09:49:36.939Z,19.56
2022-10-17T09:52:12.481Z,19.62
2022-10-17T09:54:48.286Z,19.70
2022-10-17T09:57:20.780Z,19.78
2022-10-17T10:00:00.144Z,19.86
2022-10-17T10:02:33.513Z,19.93
2022-10-17T10:05:07.262Z,20.00
2022-10-17T10:07:40.300Z,20.06
2022-10-17T10:10:27.858Z,20.15
2022-10-17T10:13:07.991Z,20.26
2022-10-17T10:15:41.185Z,20.34
2022-10-17T10:18:35.717Z,20.42
2022-10-17T10:21:13.160Z,20.52
2022-10-17T10:23:47.039Z,20.58
2022-10-17T10:26:28.935Z,20.65
2022-10-17T10:29:02.276Z,20.71
2022-10-17T10:31:36.270Z,20.77
2022-10-17T10:34:17.796Z,20.85
2022-10-17T10:36:57.459Z,20.92
2022-10-17T10:39:36.298Z,20.99
2022-10-17T10:42:10.227Z,21.06
2022-10-17T10:44:42.535Z,21.14
2022-10-17T10:47:26.096Z,21.22
2022-10-17T10:50:16.966Z,21.29
2022-10-17T10:52:51.457Z,21.39
2022-10-17T10:55:28.618Z,21.50
2022-10-17T10:58:04.124Z,21.60
2022-10-17T11:00:39.101Z,21.71
2022-10-17T11:03:17.204Z,21.79
2022-10-17T11:05:53.962Z,21.84
2022-10-17T11:08:29.749Z,21.91
2022-10-17T11:11:07.707Z,22.00
2022-10-17T11:13:42.288Z,22.09
2022-10-17T11:16:24.337Z,22.18
2022-10-17T11:19:00.913Z,22.24
2022-10-17T11:21:35.421Z,22.32
2022-10-17T11:24:15.317Z,22.36
2022-10-17T11:26:50.417Z,22.46
2022-10-17T11:29:20.992Z,22.54
2022-10-17T11:31:54.733Z,22.62
2022-10-17T11:34:27.566Z,22.68
2022-10-17T11:37:04.332Z,22.75
2022-10-17T11:42:25.766Z,22.96
2022-10-17T11:45:01.713Z,23.05
2022-10-17T11:47:40.380Z,23.17
2022-10-17T11:53:17.354Z,23.45
2022-10-17T11:55:48.783Z,23.58
2022-10-17T11:58:34.147Z,23.68
2022-10-17T12:01:15.149Z,23.77
2022-10-17T12:04:02.890Z,23.85
2022-10-17T12:06:46.376Z,23.94
2022-10-17T12:09:26.024Z,24.02
2022-10-17T12:11:58.549Z,24.12
2022-10-17T12:14:41.454Z,24.19
2022-10-17T12:17:39.130Z,24.29
2022-10-17T12:20:29.038Z,24.39
2022-10-17T12:23:02.892Z,24.47
2022-10-17T12:25:35.283Z,24.53
2022-10-17T12:28:18.243Z,24.61
2022-10-17T12:30:58.677Z,24.69
2022-10-17T12:33:34.114Z,24.75
2022-10-17T12:36:50.343Z,24.80
2022-10-17T12:39:52.630Z,24.88
2022-10-17T12:42:34.711Z,24.94
2022-10-17T12:45:26.164Z,24.98
2022-10-17T12:47:56.388Z,25.02
2022-10-17T12:54:00.842Z,25.13
2022-10-17T12:56:39.494Z,25.19
2022-10-17T12:59:16.400Z,25.25
2022-10-17T13:01:47.897Z,25.31
2022-10-17T13:04:18.918Z,25.33
2022-10-17T13:06:53.982Z,25.36
2022-10-17T13:09:30.553Z,25.41
2022-10-17T13:12:04.009Z,25.48
2022-10-17T13:14:35.850Z,25.58
2022-10-17T13:17:21.917Z,25.64
2022-10-17T13:19:52.514Z,25.70
2022-10-17T13:22:25.188Z,25.74
2022-10-17T13:25:08.216Z,25.80
2022-10-17T13:27:41.579Z,25.83
2022-10-17T13:30:32.517Z,25.88
2022-10-17T13:33:03.781Z,25.93
2022-10-17T13:38:34.784Z,26.05
2022-10-17T13:41:34.672Z,26.09
2022-10-17T13:44:12.536Z,26.10
2022-10-17T13:46:43.963Z,26.09
2022-10-17T13:49:24.454Z,26.08
2022-10-17T13:52:01.379Z,26.05
2022-10-17T13:54:40.077Z,26.00
2022-10-17T13:57:21.894Z,25.92
2022-10-17T13:59:54.514Z,25.81
2022-10-17T14:02:28.422Z,25.72
2022-10-17T14:05:17.355Z,25.60
2022-10-17T14:10:45.363Z,25.36
2022-10-17T14:13:24.407Z,25.24
2022-10-17T14:15:55.863Z,25.14
2022-10-17T14:18:30.956Z,25.04
2022-10-17T14:24:16.273Z,24.82
2022-10-17T14:26:54.418Z,24.72
2022-10-17T14:29:27.296Z,24.62
2022-10-17T14:32:03.588Z,24.54
2022-10-17T14:34:37.183Z,24.44
2022-10-17T14:37:13.692Z,24.35
2022-10-17T14:39:42.464Z,24.28
2022-10-17T14:42:21.799Z,24.18
2022-10-17T14:44:54.479Z,24.11
2022-10-17T14:47:43.327Z,24.04
2022-10-17T14:50:25.790Z,23.97
2022-10-17T14:53:04.796Z,23.91
2022-10-17T14:55:37.584Z,23.83
2022-10-17T14:58:21.701Z,23.76
2022-10-17T15:00:51.993Z,23.69
2022-10-17T15:03:22.702Z,23.62
2022-10-17T15:05:55.411Z,23.56
2022-10-17T15:08:26.158Z,23.51
2022-10-17T15:10:56.435Z,23.44
2022-10-17T15:13:28.835Z,23.37
2022-10-17T15:16:00.556Z,23.28
2022-10-17T15:18:30.816Z,23.21
2022-10-17T15:21:05.451Z,23.13
2022-10-17T15:23:43.275Z,23.04
2022-10-17T15:26:21.685Z,22.96
2022-10-17T15:28:54.156Z,22.87
2022-10-17T15:31:27.653Z,22.78
2022-10-17T15:33:58.382Z,22.70
2022-10-17T15:36:30.576Z,22.62
2022-10-17T15:39:02.513Z,22.53
2022-10-17T15:41:34.332Z,22.45
2022-10-17T15:44:04.650Z,22.37
2022-10-17T15:46:36.481Z,22.29
2022-10-17T15:49:08.660Z,22.21
2022-10-17T15:51:38.936Z,22.13
2022-10-17T15:54:09.530Z,22.03
2022-10-17T15:56:42.315Z,21.94
2022-10-17T15:59:17.933Z,21.84
2022-10-17T16:01:48.677Z,21.73
2022-10-17T16:04:19.020Z,21.65
2022-10-17T16:06:49.306Z,21.57
2022-10-17T16:09:19.583Z,21.50
2022-10-17T16:11:49.793Z,21.42
2022-10-17T16:14:20.111Z,21.33
2022-10-17T16:16:50.436Z,21.24
2022-10-17T16:19:20.912Z,21.16
2022-10-17T16:21:51.357Z,21.07
2022-10-17T16:24:21.600Z,20.98
2022-10-17T16:26:52.248Z,20.90
2022-10-17T16:29:22.508Z,20.83
2022-10-17T16:31:52.736Z,20.76
2022-10-17T16:34:22.935Z,20.67
2022-10-17T16:36:53.223Z,20.58
2022-10-17T16:39:23.515Z,20.48
2022-10-17T16:41:56.265Z,20.42
2022-10-17T16:44:31.259Z,20.35
2022-10-17T16:47:01.479Z,20.26
2022-10-17T16:49:31.688Z,20.21
2022-10-17T16:52:01.898Z,20.16
2022-10-17T16:54:32.163Z,20.10
2022-10-17T16:57:02.721Z,20.03
2022-10-17T16:59:33.074Z,19.98
2022-10-17T17:02:03.312Z,19.92
2022-10-17T17:04:37.450Z,19.87
2022-10-17T17:07:07.959Z,19.82
2022-10-17T17:09:43.350Z,19.77
2022-10-17T17:12:13.731Z,19.72
2022-10-17T17:14:43.952Z,19.68
2022-10-17T17:17:24.393Z,19.62
2022-10-17T17:20:00.991Z,19.56
2022-10-17T17:22:31.233Z,19.52
2022-10-17T17:25:01.463Z,19.46
2022-10-17T17:27:32.281Z,19.42
2022-10-17T17:30:02.721Z,19.37
2022-10-17T17:32:34.575Z,19.32
2022-10-17T17:35:05.191Z,19.28
2022-10-17T17:37:35.926Z,19.25
2022-10-17T17:40:09.510Z,19.23
2022-10-17T17:42:39.730Z,19.20
2022-10-17T17:45:12.041Z,19.18
2022-10-17T17:47:42.269Z,19.15
2022-10-17T17:50:13.263Z,19.12
2022-10-17T17:52:45.568Z,19.10
2022-10-17T17:55:15.867Z,19.08
2022-10-17T17:57:46.130Z,19.06
2022-10-17T18:00:17.554Z,19.03
2022-10-17T18:02:47.826Z,19.02
2022-10-17T18:05:19.491Z,19.00
2022-10-17T18:07:49.849Z,18.99
2022-10-17T18:10:28.952Z,18.97
2022-10-17T18:12:59.208Z,18.95
2022-10-17T18:15:29.543Z,18.92
2022-10-17T18:17:59.831Z,18.91
2022-10-17T18:20:30.147Z,18.89
2022-10-17T18:23:03.451Z,18.88
2022-10-17T18:25:34.561Z,18.87
2022-10-17T18:28:05.371Z,18.85
2022-10-17T18:30:39.253Z,18.83
2022-10-17T18:33:09.497Z,18.82
2022-10-17T18:35:39.690Z,18.80
2022-10-17T18:38:09.957Z,18.78
2022-10-17T18:40:40.504Z,18.77
2022-10-17T18:43:11.161Z,18.75
2022-10-17T18:45:41.411Z,18.74
2022-10-17T18:48:11.707Z,18.72
2022-10-17T18:50:41.920Z,18.71
2022-10-17T18:53:12.110Z,18.70
2022-10-17T18:55:42.690Z,18.70
2022-10-17T18:58:12.975Z,18.69
2022-10-17T19:00:43.224Z,18.68
2022-10-17T19:03:13.553Z,18.66
2022-10-17T19:05:45.204Z,18.65
2022-10-17T19:08:16.201Z,18.64
2022-10-17T19:10:46.693Z,18.62
2022-10-17T19:13:21.596Z,18.59
2022-10-17T19:15:52.252Z,18.57
2022-10-17T19:18:24.635Z,18.55
2022-10-17T19:20:54.949Z,18.53
2022-10-17T19:23:25.430Z,18.50
2022-10-17T19:26:00.387Z,18.46
2022-10-17T19:28:30.909Z,18.40
2022-10-17T19:31:01.286Z,18.34
2022-10-17T19:33:32.152Z,18.30
2022-10-17T19:36:05.053Z,18.26
2022-10-17T19:38:36.029Z,18.23
2022-10-17T19:41:13.119Z,18.18
2022-10-17T19:43:44.814Z,18.12
2022-10-17T19:46:18.343Z,18.05
2022-10-17T19:48:49.561Z,17.92
2022-10-17T19:51:21.683Z,17.78
2022-10-17T19:53:52.150Z,17.68
2022-10-17T19:56:24.630Z,17.59
2022-10-17T19:59:00.233Z,17.50
2022-10-17T20:01:33.678Z,17.42
2022-10-17T20:04:04.700Z,17.33
2022-10-17T20:06:35.661Z,17.23
2022-10-17T20:09:11.025Z,17.15
2022-10-17T20:11:44.253Z,17.07
2022-10-17T20:14:15.468Z,17.00
2022-10-17T20:16:50.126Z,16.92
2022-10-17T20:19:20.879Z,16.84
2022-10-17T20:21:51.343Z,16.75
2022-10-17T20:24:21.599Z,16.67
2022-10-17T20:26:51.865Z,16.59
2022-10-17T20:29:24.060Z,16.51
2022-10-17T20:31:54.318Z,16.38
2022-10-17T20:34:24.877Z,16.29
2022-10-17T20:36:55.186Z,16.21
2022-10-17T20:39:25.432Z,16.10
2022-10-17T20:41:55.997Z,15.80
2022-10-17T20:44:26.250Z,15.69
2022-10-17T20:47:02.836Z,15.67
2022-10-17T20:49:34.121Z,15.65
2022-10-17T20:52:04.404Z,15.65
2022-10-17T20:54:34.686Z,15.66
2022-10-17T20:57:05.796Z,15.68
2022-10-17T20:59:36.969Z,15.71
2022-10-17T21:02:07.761Z,15.74
2022-10-17T21:04:46.219Z,15.80
2022-10-17T21:07:17.348Z,15.83
2022-10-17T21:09:47.538Z,15.82
2022-10-17T21:12:26.042Z,15.83
2022-10-17T21:15:01.815Z,15.85
2022-10-17T21:17:32.044Z,15.89
2022-10-17T21:20:02.366Z,15.91
2022-10-17T21:22:33.691Z,15.92
2022-10-17T21:25:04.070Z,15.81
2022-10-17T21:27:34.302Z,15.63
2022-10-17T21:30:05.090Z,15.48
2022-10-17T21:32:51.056Z,15.35
2022-10-17T21:35:22.182Z,15.35
2022-10-17T21:37:53.388Z,15.36
2022-10-17T21:40:23.594Z,15.38
2022-10-17T21:42:53.826Z,15.38
2022-10-17T21:45:25.862Z,15.42
2022-10-17T21:48:12.110Z,15.45
2022-10-17T21:50:43.328Z,15.49
2022-10-17T21:53:13.531Z,15.54
2022-10-17T21:55:43.795Z,15.61
2022-10-17T21:58:14.046Z,15.67
2022-10-17T22:00:44.284Z,15.72
2022-10-17T22:03:15.203Z,15.77
2022-10-17T22:05:46.418Z,15.83
2022-10-17T22:08:16.853Z,15.88
2022-10-17T22:10:47.148Z,15.90
2022-10-17T22:13:17.371Z,15.91
2022-10-17T22:15:47.598Z,15.91
2022-10-17T22:18:17.890Z,15.89
2022-10-17T22:20:48.096Z,15.87
2022-10-17T22:23:18.361Z,15.85
2022-10-17T22:25:55.385Z,15.83
2022-10-17T22:28:26.739Z,15.74
2022-10-17T22:30:57.091Z,15.61
2022-10-17T22:33:27.381Z,15.50
2022-10-17T22:35:57.607Z,15.41
2022-10-17T22:38:27.887Z,15.35
2022-10-17T22:40:58.288Z,15.29
2022-10-17T22:43:29.676Z,15.13
2022-10-17T22:46:01.915Z,15.02
2022-10-17T22:48:32.392Z,14.97
2022-10-17T22:51:03.316Z,14.87
2022-10-17T22:53:35.060Z,14.77
2022-10-17T22:56:07.739Z,14.68
2022-10-17T22:58:38.886Z,14.63
2022-10-17T23:01:11.362Z,14.58
2022-10-17T23:03:41.761Z,14.54
2022-10-17T23:06:14.855Z,14.51
2022-10-17T23:08:45.370Z,14.44
2022-10-17T23:11:15.640Z,14.39
2022-10-17T23:13:47.076Z,14.37
2022-10-17T23:16:17.328Z,14.34
2022-10-17T23:18:47.787Z,14.32
2022-10-17T23:21:18.153Z,14.26
2022-10-17T23:23:48.408Z,14.18
2022-10-17T23:26:18.601Z,14.06
2022-10-17T23:28:48.955Z,13.98
2022-10-17T23:31:20.819Z,13.94
2022-10-17T23:33:51.612Z,13.90
2022-10-17T23:36:22.582Z,13.89
2022-10-17T23:38:55.104Z,13.90
2022-10-17T23:41:28.613Z,13.89
2022-10-17T23:43:58.861Z,13.82
2022-10-17T23:46:29.076Z,13.68
2022-10-17T23:48:59.403Z,13.51
2022-10-17T23:51:30.277Z,13.36
2022-10-17T23:54:00.531Z,13.20
2022-10-17T23:56:30.823Z,13.18
2022-10-17T23:59:01.128Z,13.19
